Miami, Florida
Traffic Map
Current Weather Conditions
Miami, Florida
Scattered Clouds
Scattered Clouds
23°
Feels Like: 23°
Wind Chill: 23° Ceiling: Unl
Heat Index: 23° Visibility: 10mi
Dew Point: 20° Wind: 3mph
Humidity: 84% Direction: 290° (WNW)
Pressure: 29.97in Gusts: 0mph
Raw Report DataKMIA 250653Z 29003KT 10SM SCT070 23/20 A2997 RMK AO2 SLP147 T02280200
Traffic Incident Summary
Active as of:
Severity:
Category:
InformationThere was an issue retrieving the traffic information for this location. Please try a different location or try again shortly.
Advertisements
At Last! Intellicast now available for iPhone and Android